Weather at Ástor Piazzola International Airport

Public forecast

Using degrees Celsius for public forecast. Weather courtesy of forecast.io.

Current aviation weather report (METAR) for Ástor Piazzola International Airport

Report is more than 6 hours old.

2022/11/14 15:00 (retrieved 2 years ago)

SAZM 141500Z 23016G28KT 9999 OVC013 17/16 Q0997 RMK PP///

Aviation forecast (TAF) for Ástor Piazzola International Airport

Forecast is more than 12 hours old.

2023/02/22 18:00 (retrieved 1 year ago)

TAF SAZM 221700Z 2218/2318 34010KT CAVOK TX31/2218Z TN16/2308Z BECMG 2219/2220 05015KT BECMG 2300/2302 34010KT BECMG 2305/2307 3000 BR SCT005 BECMG 2310/2311 9999 SCT030 BKN050